KSDM/SDM METAR and TAF weather

Enter ICAO airport designator
Station Type Date Time Source
KSDM METAR 2022/06/27 08:53 UTC NOAA

KSDM 270853Z AUTO 00000KT 5SM HZ CLR 17/14 A3001 RMK AO2 SLP157 T01720144 55005 $


Station Type Date Time Source
KSDM Decoded METAR 2022/06/27 08:53 UTC NOAA

San Diego, Brown Field Municipal Airport, CA, United States (KSDM) 32-34-31N 116-59-35W 159M
Jun 27, 2022 - 04:53 AM EDT / 2022.06.27 0853 UTC
Wind: Calm:0
Visibility: 5 mile(s):0
Sky conditions: clear
Weather: haze
Temperature: 63.0 F (17.2 C)
Dew Point: 57.9 F (14.4 C)
Relative Humidity: 83%
Pressure (altimeter): 30.01 in. Hg (1016 hPa)
Pressure tendency: 0.01 inches (0.5 hPa) lower than three hours ago
ob: KSDM 270853Z AUTO 00000KT 5SM HZ CLR 17/14 A3001 RMK AO2 SLP157 T01720144 55005
cycle: 9

Station Type Date Time Source
KSDM TAF UTC NOAA

Error!

Example: see airport list